Accueil
METAR-TAF:

METAR-TAF

Aéroports :

Aéroport international de Bâle-Mulhouse-Fribourg

Bâle-Mulhouse, France

latitude: 47-36N, longitude: 007-31E, altitude: 270 m

Observation

Le bulletin a été fait il y a 17 minutes, à 07:30 UTC
Vent 3 kt de sud
Température 14°C
Humidité 94%
Pression 1016 hPa
Visibilité 10 km ou plus
pas de nuages en-dessous de 1500 mètres et pas de cumulonimbus.

METAR: LFSB 140730Z 19003KT CAVOK 14/13 Q1016 NOSIG

Heure: 09:47 (07:47 UTC)

Prévision

Le bulletin a été fait il y a 2 heures et 47 minutes, à 05:00 UTC
Prévision valable du 14 à 06 UTC au 15 à 06 UTC
Vent 4 kt de sud
Visibilité 10 km ou plus
pas de nuages en-dessous de 1500 mètres et pas de cumulonimbus.
Evoluant progressivement
du 14 à 11 UTC au 14 à 13 UTC
Vent 10 kt de est/sud-est
Evoluant progressivement
du 14 à 20 UTC au 14 à 23 UTC
Vent 4 kt de sud

TAF: LFSB 140500Z 1406/1506 17004KT CAVOK BECMG 1411/1413 11010KT BECMG 1420/1423 18004KT

Observations et prévisions météorologiques de plus de 4000 aéroports (messages METAR et TAF).

Les stations disponibles sont représentées par des disques jaunes et rouges sur la carte.

Passer la souris dessus pour voir le nom de la station.

Cliquer dessus pour voir les observations et prévisions météorologiques.

Pour changer de carte: cliquez sur les boutons verts avec une croix noire pour zoomer, sur le bouton vert avec un tiret pour effectuer un zoom arrière, ou sur les flèches vertes pour les cartes adjacentes.


METAR-TAF: